Terminal Aerodrome Forecast
Issued by NWS

Home | Current Version | Previous Version | Graphics & Text | Print | Product List | Glossary On
Versions: 1 2 3 4 5 6 7 8 9 10 11 12 13 14 15 16 17
000
FTUS43 KBIS 190500
TAFMOT
TAF
KMOT 190520Z 1906/2006 20007KT P6SM SCT150
     FM191400 26011KT P6SM SCT150
     FM191800 28017G26KT P6SM SCT050=

USA.gov is the U.S. government's official web portal to all federal, state and local government web resources and services.